Flight Track Log - Related Links

Times and Time Zones

All times are in EDT time to prevent confusion due to time zone crossing. See the CES5527 flight status page for this flight to view local times or setup timezone preferences in your user account.

Time Position Orientation Groundspeed Altitude Reporting Facility
EDT Latitude Longitude Course Direction KTS MPH feet Rate Location/Type
Sun 11:04:01 AM 31.1803 121.3337 360° North 800  Level FlightAware ADS-B (ZSSL)
Sun 11:04:07 AM 31.1760 121.3341 176° South 170 196 1,100 2,471 Climbing FlightAware ADS-B (ZSSL)
Sun 11:04:35 AM 31.1551 121.3352 177° South 164 189 2,200 2,182 Climbing FlightAware ADS-B (ZSSS / SHA)
Sun 11:04:51 AM 31.1415 121.3358 177° South 168 193 2,700 1,875 Climbing FlightAware ADS-B (ZSSS / SHA)
Sun 11:05:07 AM 31.1280 121.3365 177° South 169 194 3,200 1,548 Climbing FlightAware ADS-B (ZSSS / SHA)
Sun 11:05:22 AM 31.1173 121.3371 177° South 178 205 3,500 889 Climbing FlightAware ADS-B (ZSSL)
Sun 11:05:34 AM 31.1127 121.3373 177° South 184 212 3,600 889 Climbing FlightAware ADS-B (ZSSL)
Sun 11:06:16 AM 31.0650 121.3355 202° Southwest 240 276 4,300 941 Climbing FlightAware ADS-B (ZSSS / SHA)
Sun 11:06:25 AM 31.0556 121.3289 177° South 200 230 4,400 800 Climbing FlightAware ADS-B (ZSSL)
Sun 11:06:31 AM 31.0566 121.3298 202° Southwest 240 276 4,500 1,333 Climbing FlightAware ADS-B (ZSSS / SHA)
Sun 11:06:34 AM 31.0491 121.3207 177° South 200 230 4,600 1,636 Climbing FlightAware ADS-B (ZSSL)
Sun 11:06:42 AM 31.0444 121.3097 250° West 266 306 4,800 2,160 Climbing FlightAware ADS-B (ZSSL)
Sun 11:06:59 AM 31.0432 121.2847 280° West 273 314 5,500 2,483 Climbing FlightAware ADS-B (ZSSS / SHA)
Sun 11:07:11 AM 31.0444 121.3097 250° West 266 306 6,000 2,250 Climbing FlightAware ADS-B (ZSSL)
Sun 11:07:15 AM 31.0460 121.2685 282° West 274 315 6,100 2,000 Climbing FlightAware ADS-B (ZSSS / SHA)
Sun 11:07:26 AM 31.0487 121.2520 281° West 275 316 6,500 2,700 Climbing FlightAware ADS-B (ZSSS / SHA)
Sun 11:07:35 AM 31.0519 121.2318 250° West 266 306 7,000 2,625 Climbing FlightAware ADS-B (ZSSL)
Sun 11:07:42 AM 31.0534 121.2219 281° West 279 321 7,200 1,875 Climbing FlightAware ADS-B (ZSSS / SHA)
Sun 11:07:51 AM 31.0519 121.2318 250° West 266 306 7,500 2,400 Climbing FlightAware ADS-B (ZSSL)
Sun 11:08:02 AM 31.0578 121.1929 281° West 282 325 8,000 1,826 Climbing FlightAware ADS-B (ZSSS / SHA)
Sun 11:08:14 AM 31.0596 121.1815 280° West 288 331 8,200 839 Climbing FlightAware ADS-B (ZSSS / SHA)
Sun 11:09:35 AM 31.1469 121.1220 357° North 296 341 9,300 1,179 Climbing FlightAware ADS-B (ZSSS / SHA)
Sun 11:10:06 AM 31.1845 121.1195 357° North 301 346 10,400 1,645 Climbing FlightAware ADS-B (ZSSS / SHA)
Sun 11:10:37 AM 31.2367 121.1172 North 331 381 11,000 984 Climbing FlightAware ADS-B (ZSSS / SHA)
Sun 11:11:07 AM 31.2826 121.1172 North 357 411 11,400 800 Climbing FlightAware ADS-B (ZSSS / SHA)
Sun 11:11:37 AM 31.3354 121.1169 North 373 429 11,800 600 Climbing FlightAware ADS-B (ZSSS / SHA)
Sun 11:12:07 AM 31.3877 121.1167 North 376 433 12,000 1,119 Climbing FlightAware ADS-B (ZSSS / SHA)
Sun 11:12:36 AM 31.4394 121.1159 North 382 440 12,900 1,900 Climbing FlightAware ADS-B (ZSSS / SHA)
Sun 11:13:07 AM 31.4898 121.0955 340° North 376 433 13,900 1,058 Climbing FlightAware ADS-B (ZSSS / SHA)
Sun 11:24:36 AM 32.2092 120.2205 277° West 407 468 25,600 1,019 Climbing FlightAware ADS-B (ZSSL)
Sun 11:27:00 AM 32.2995 119.9718 293° West  Level Estimated
Sun 11:28:00 AM 32.3370 119.8680 293° West  Level Estimated
Sun 11:29:00 AM 32.3745 119.7642 293° West  Level Estimated
Sun 11:30:00 AM 32.4118 119.6602 293° West  Level Estimated
Sun 11:31:00 AM 32.4491 119.5562 293° West  Level Estimated
Sun 11:32:00 AM 32.4862 119.4520 293° West  Level Estimated
Sun 11:33:00 AM 32.5233 119.3478 293° West  Level Estimated
Sun 11:34:00 AM 32.5603 119.2436 293° West  Level Estimated
Sun 11:35:00 AM 32.5972 119.1392 293° West  Level Estimated
Sun 11:36:00 AM 32.6340 119.0347 293° West  Level Estimated
Sun 11:37:00 AM 32.6708 118.9301 293° West  Level Estimated
Sun 11:38:00 AM 32.7074 118.8255 293° West  Level Estimated
Sun 11:39:00 AM 32.7440 118.7208 293° West  Level Estimated
Sun 11:40:00 AM 32.7805 118.6160 293° West  Level Estimated
Sun 11:41:00 AM 32.8168 118.5111 292° West  Level Estimated
Sun 11:42:00 AM 32.8531 118.4061 292° West  Level Estimated
Sun 11:43:00 AM 32.8894 118.3010 292° West  Level Estimated
Sun 11:44:00 AM 32.9255 118.1959 292° West  Level Estimated
Sun 11:45:00 AM 32.9615 118.0906 292° West  Level Estimated
Sun 11:46:00 AM 32.9975 117.9853 292° West  Level Estimated
Sun 11:47:00 AM 33.0333 117.8799 292° West  Level Estimated
Sun 11:48:00 AM 33.0691 117.7744 292° West  Level Estimated
Sun 11:49:00 AM 33.1048 117.6688 292° West  Level Estimated
Sun 11:50:00 AM 33.1404 117.5631 292° West  Level Estimated
Sun 11:51:00 AM 33.1759 117.4574 292° West  Level Estimated
Sun 11:52:00 AM 33.2113 117.3515 292° West  Level Estimated
Sun 11:53:00 AM 33.2466 117.2456 292° West  Level Estimated
Sun 11:54:00 AM 33.2818 117.1396 292° West  Level Estimated
Sun 11:55:00 AM 33.3170 117.0335 292° West  Level Estimated
Sun 11:56:00 AM 33.3521 116.9273 292° West  Level Estimated
Sun 11:57:00 AM 33.3870 116.8211 292° West  Level Estimated
Sun 11:58:00 AM 33.4219 116.7147 291° West  Level Estimated
Sun 11:59:00 AM 33.4567 116.6083 291° West  Level Estimated
Sun 12:00:00 PM 33.4914 116.5017 291° West  Level Estimated
Sun 12:01:00 PM 33.5260 116.3951 291° West  Level Estimated
Sun 12:02:00 PM 33.5605 116.2884 291° West  Level Estimated
Sun 12:03:00 PM 33.5949 116.1817 291° West  Level Estimated
Sun 12:04:00 PM 33.6292 116.0748 291° West  Level Estimated
Sun 12:05:00 PM 33.6634 115.9678 291° West  Level Estimated
Sun 12:06:00 PM 33.6976 115.8608 291° West  Level Estimated
Sun 12:07:00 PM 33.7316 115.7537 291° West  Level Estimated
Sun 12:08:00 PM 33.7656 115.6465 291° West  Level Estimated
Sun 12:09:00 PM 33.7995 115.5392 291° West  Level Estimated
Sun 12:10:00 PM 33.8332 115.4318 291° West  Level Estimated
Sun 12:11:00 PM 33.8669 115.3244 291° West  Level Estimated
Sun 12:12:00 PM 33.9005 115.2168 291° West  Level Estimated
Sun 12:13:00 PM 33.9340 115.1092 291° West  Level Estimated
Sun 12:14:00 PM 33.9674 115.0015 291° West  Level Estimated
Sun 12:15:00 PM 34.0007 114.8937 290° West  Level Estimated
Sun 12:16:00 PM 34.0339 114.7858 290° West  Level Estimated
Sun 12:17:00 PM 34.0670 114.6778 290° West  Level Estimated
Sun 12:18:00 PM 34.1000 114.5698 290° West  Level Estimated
Sun 12:19:00 PM 34.1330 114.4616 290° West  Level Estimated
Sun 12:20:00 PM 34.1658 114.3534 290° West  Level Estimated
Sun 12:21:00 PM 34.1985 114.2451 290° West  Level Estimated
Sun 12:22:00 PM 34.2312 114.1367 290° West  Level Estimated
Sun 12:23:00 PM 34.2637 114.0283 290° West  Level Estimated
Sun 12:24:00 PM 34.2962 113.9197 290° West  Level Estimated
Sun 12:25:00 PM 34.3285 113.8111 290° West  Level Estimated
Sun 12:26:00 PM 34.3608 113.7024 290° West  Level Estimated
Sun 12:27:00 PM 34.3929 113.5936 290° West  Level Estimated
Sun 12:28:00 PM 34.4250 113.4847 290° West  Level Estimated
Sun 12:29:00 PM 34.4566 113.3769 290° West  Level Estimated
Sun 12:30:00 PM 34.4881 113.2691 290° West  Level Estimated
Sun 12:31:00 PM 34.5195 113.1612 289° West  Level Estimated
Sun 12:32:00 PM 34.5508 113.0532 289° West  Level Estimated
Sun 12:33:00 PM 34.5821 112.9452 289° West  Level Estimated
Sun 12:34:00 PM 34.6132 112.8370 289° West  Level Estimated
Sun 12:35:00 PM 34.6442 112.7288 289° West  Level Estimated
Sun 12:36:00 PM 34.6752 112.6205 289° West  Level Estimated
Sun 12:37:00 PM 34.7060 112.5121 289° West  Level Estimated
Sun 12:38:00 PM 34.7368 112.4037 289° West  Level Estimated
Sun 12:39:00 PM 34.7411 112.3883 289° West  Level Estimated
Sun 12:40:00 PM 34.7411 112.3883 North  Level Estimated
Sun 12:41:00 PM 34.7411 112.3883 North  Level Estimated
Sun 12:42:00 PM 34.7411 112.3883 North  Level Estimated
Sun 12:43:00 PM 34.7411 112.3883 North  Level Estimated
Sun 12:44:00 PM 34.7411 112.3883 North  Level Estimated
Sun 12:45:00 PM 34.7411 112.3883 North  Level Estimated
Sun 12:46:00 PM 34.7411 112.3883 North  Level Estimated
Sun 12:47:00 PM 34.7411 112.3883 North  Level Estimated

Login

Don't have an account? Register now (free) for customized features, flight alerts, and more!